sensor_id;sensor_type;location;lat;lon;timestamp;temperature;humidity
41720;DHT22;27405;53.316;-6.294;2022-11-20T00:00:47;8.70;99.90
41720;DHT22;27405;53.316;-6.294;2022-11-20T00:03:13;8.70;99.90
41720;DHT22;27405;53.316;-6.294;2022-11-20T00:05:39;8.70;99.90
41720;DHT22;27405;53.316;-6.294;2022-11-20T00:08:04;8.70;99.90
41720;DHT22;27405;53.316;-6.294;2022-11-20T00:10:30;8.70;99.90
41720;DHT22;27405;53.316;-6.294;2022-11-20T00:12:58;8.70;99.90
41720;DHT22;27405;53.316;-6.294;2022-11-20T00:15:24;8.70;99.90
41720;DHT22;27405;53.316;-6.294;2022-11-20T00:17:49;8.60;99.90
41720;DHT22;27405;53.316;-6.294;2022-11-20T00:20:15;8.60;99.90
41720;DHT22;27405;53.316;-6.294;2022-11-20T00:22:41;8.60;99.90
41720;DHT22;27405;53.316;-6.294;2022-11-20T00:25:07;8.60;99.90
41720;DHT22;27405;53.316;-6.294;2022-11-20T00:27:32;8.50;99.90
41720;DHT22;27405;53.316;-6.294;2022-11-20T00:29:58;8.50;99.90
41720;DHT22;27405;53.316;-6.294;2022-11-20T00:32:24;8.50;99.90
41720;DHT22;27405;53.316;-6.294;2022-11-20T00:34:49;8.50;99.90
41720;DHT22;27405;53.316;-6.294;2022-11-20T00:37:15;8.40;99.90
41720;DHT22;27405;53.316;-6.294;2022-11-20T00:39:40;8.40;99.90
41720;DHT22;27405;53.316;-6.294;2022-11-20T00:42:06;8.40;99.90
41720;DHT22;27405;53.316;-6.294;2022-11-20T00:44:32;8.40;99.90
41720;DHT22;27405;53.316;-6.294;2022-11-20T00:46:57;8.40;99.90
41720;DHT22;27405;53.316;-6.294;2022-11-20T00:49:23;8.40;99.90
41720;DHT22;27405;53.316;-6.294;2022-11-20T00:51:49;8.40;99.90
41720;DHT22;27405;53.316;-6.294;2022-11-20T00:54:14;8.40;99.90
41720;DHT22;27405;53.316;-6.294;2022-11-20T00:56:40;8.30;99.90
41720;DHT22;27405;53.316;-6.294;2022-11-20T00:59:06;8.30;99.90
41720;DHT22;27405;53.316;-6.294;2022-11-20T01:01:31;8.30;99.90
41720;DHT22;27405;53.316;-6.294;2022-11-20T01:03:59;8.30;99.90
41720;DHT22;27405;53.316;-6.294;2022-11-20T01:06:33;8.30;99.90
41720;DHT22;27405;53.316;-6.294;2022-11-20T01:09:02;8.30;99.90
41720;DHT22;27405;53.316;-6.294;2022-11-20T01:11:29;8.30;99.90
41720;DHT22;27405;53.316;-6.294;2022-11-20T01:13:56;8.30;99.90
41720;DHT22;27405;53.316;-6.294;2022-11-20T01:18:50;8.30;99.90
41720;DHT22;27405;53.316;-6.294;2022-11-20T01:21:21;8.20;99.90
41720;DHT22;27405;53.316;-6.294;2022-11-20T01:23:49;8.10;99.90
41720;DHT22;27405;53.316;-6.294;2022-11-20T01:26:19;8.10;99.90
41720;DHT22;27405;53.316;-6.294;2022-11-20T01:28:46;8.10;99.90
41720;DHT22;27405;53.316;-6.294;2022-11-20T01:31:18;8.00;99.90
41720;DHT22;27405;53.316;-6.294;2022-11-20T01:33:45;8.00;99.90
41720;DHT22;27405;53.316;-6.294;2022-11-20T01:36:12;7.90;99.90
41720;DHT22;27405;53.316;-6.294;2022-11-20T01:38:38;7.90;99.90
41720;DHT22;27405;53.316;-6.294;2022-11-20T01:41:05;7.90;99.90
41720;DHT22;27405;53.316;-6.294;2022-11-20T01:43:31;7.90;99.90
41720;DHT22;27405;53.316;-6.294;2022-11-20T01:46:08;7.90;99.90
41720;DHT22;27405;53.316;-6.294;2022-11-20T01:54:09;7.90;99.90
41720;DHT22;27405;53.316;-6.294;2022-11-20T01:56:40;7.80;99.90
41720;DHT22;27405;53.316;-6.294;2022-11-20T01:59:07;7.80;99.90
41720;DHT22;27405;53.316;-6.294;2022-11-20T02:01:34;7.80;99.90
41720;DHT22;27405;53.316;-6.294;2022-11-20T02:04:00;7.80;99.90
41720;DHT22;27405;53.316;-6.294;2022-11-20T02:06:30;7.80;99.90
41720;DHT22;27405;53.316;-6.294;2022-11-20T02:08:57;7.80;99.90
41720;DHT22;27405;53.316;-6.294;2022-11-20T02:11:22;7.70;99.90
41720;DHT22;27405;53.316;-6.294;2022-11-20T02:13:48;7.70;99.90
41720;DHT22;27405;53.316;-6.294;2022-11-20T02:16:25;7.70;99.90
41720;DHT22;27405;53.316;-6.294;2022-11-20T02:18:51;7.70;99.90
41720;DHT22;27405;53.316;-6.294;2022-11-20T02:24:12;7.70;99.90
41720;DHT22;27405;53.316;-6.294;2022-11-20T02:27:10;7.70;99.90
41720;DHT22;27405;53.316;-6.294;2022-11-20T02:29:56;7.80;99.90
41720;DHT22;27405;53.316;-6.294;2022-11-20T02:34:53;7.90;99.90
41720;DHT22;27405;53.316;-6.294;2022-11-20T02:37:20;7.90;99.90
41720;DHT22;27405;53.316;-6.294;2022-11-20T02:39:48;7.90;99.90
41720;DHT22;27405;53.316;-6.294;2022-11-20T02:42:14;7.90;99.90
41720;DHT22;27405;53.316;-6.294;2022-11-20T02:44:40;8.00;99.90
41720;DHT22;27405;53.316;-6.294;2022-11-20T02:47:05;8.00;99.90
41720;DHT22;27405;53.316;-6.294;2022-11-20T02:49:31;8.00;99.90
41720;DHT22;27405;53.316;-6.294;2022-11-20T02:51:57;8.00;99.90
41720;DHT22;27405;53.316;-6.294;2022-11-20T02:54:23;7.90;99.90
41720;DHT22;27405;53.316;-6.294;2022-11-20T02:56:49;7.80;99.90
41720;DHT22;27405;53.316;-6.294;2022-11-20T02:59:15;7.80;99.90
41720;DHT22;27405;53.316;-6.294;2022-11-20T03:01:40;7.80;99.90
41720;DHT22;27405;53.316;-6.294;2022-11-20T03:04:06;7.80;99.90
41720;DHT22;27405;53.316;-6.294;2022-11-20T03:06:32;7.70;99.90
41720;DHT22;27405;53.316;-6.294;2022-11-20T03:08:57;7.70;99.90
41720;DHT22;27405;53.316;-6.294;2022-11-20T03:11:23;7.60;99.90
41720;DHT22;27405;53.316;-6.294;2022-11-20T03:13:49;7.60;99.90
41720;DHT22;27405;53.316;-6.294;2022-11-20T03:16:19;7.60;99.90
41720;DHT22;27405;53.316;-6.294;2022-11-20T03:18:45;7.50;99.90
41720;DHT22;27405;53.316;-6.294;2022-11-20T03:21:12;7.60;99.90
41720;DHT22;27405;53.316;-6.294;2022-11-20T03:23:38;7.60;99.90
41720;DHT22;27405;53.316;-6.294;2022-11-20T03:26:24;7.60;99.90
41720;DHT22;27405;53.316;-6.294;2022-11-20T03:29:01;7.60;99.90
41720;DHT22;27405;53.316;-6.294;2022-11-20T03:31:32;7.70;99.90
41720;DHT22;27405;53.316;-6.294;2022-11-20T03:33:58;7.70;99.90
41720;DHT22;27405;53.316;-6.294;2022-11-20T03:36:26;7.70;99.90
41720;DHT22;27405;53.316;-6.294;2022-11-20T03:38:56;7.70;99.90
41720;DHT22;27405;53.316;-6.294;2022-11-20T03:41:24;7.60;99.90
41720;DHT22;27405;53.316;-6.294;2022-11-20T03:43:54;7.60;99.90
41720;DHT22;27405;53.316;-6.294;2022-11-20T03:46:21;7.60;99.90
41720;DHT22;27405;53.316;-6.294;2022-11-20T03:48:47;7.60;99.90
41720;DHT22;27405;53.316;-6.294;2022-11-20T03:53:45;7.60;99.90
41720;DHT22;27405;53.316;-6.294;2022-11-20T03:56:13;7.60;99.90
41720;DHT22;27405;53.316;-6.294;2022-11-20T03:58:40;7.60;99.90
41720;DHT22;27405;53.316;-6.294;2022-11-20T04:01:12;7.60;99.90
41720;DHT22;27405;53.316;-6.294;2022-11-20T04:03:39;7.60;99.90
41720;DHT22;27405;53.316;-6.294;2022-11-20T04:06:10;7.50;99.90
41720;DHT22;27405;53.316;-6.294;2022-11-20T04:08:37;7.60;99.90
41720;DHT22;27405;53.316;-6.294;2022-11-20T04:11:09;7.60;99.90
41720;DHT22;27405;53.316;-6.294;2022-11-20T04:13:35;7.60;99.90
41720;DHT22;27405;53.316;-6.294;2022-11-20T04:16:01;7.60;99.90
41720;DHT22;27405;53.316;-6.294;2022-11-20T04:18:27;7.60;99.90
41720;DHT22;27405;53.316;-6.294;2022-11-20T04:20:52;7.60;99.90
41720;DHT22;27405;53.316;-6.294;2022-11-20T04:23:18;7.50;99.90
41720;DHT22;27405;53.316;-6.294;2022-11-20T04:25:44;7.50;99.90
41720;DHT22;27405;53.316;-6.294;2022-11-20T04:28:09;7.50;99.90
41720;DHT22;27405;53.316;-6.294;2022-11-20T04:30:35;7.50;99.90
41720;DHT22;27405;53.316;-6.294;2022-11-20T04:33:01;7.50;99.90
41720;DHT22;27405;53.316;-6.294;2022-11-20T04:35:26;7.40;99.90
41720;DHT22;27405;53.316;-6.294;2022-11-20T04:37:52;7.40;99.90
41720;DHT22;27405;53.316;-6.294;2022-11-20T04:40:17;7.40;99.90
41720;DHT22;27405;53.316;-6.294;2022-11-20T04:42:43;7.40;99.90
41720;DHT22;27405;53.316;-6.294;2022-11-20T04:45:09;7.30;99.90
41720;DHT22;27405;53.316;-6.294;2022-11-20T04:47:34;7.30;99.90
41720;DHT22;27405;53.316;-6.294;2022-11-20T04:50:00;7.20;99.90
41720;DHT22;27405;53.316;-6.294;2022-11-20T04:52:26;7.20;99.90
41720;DHT22;27405;53.316;-6.294;2022-11-20T04:54:51;7.20;99.90
41720;DHT22;27405;53.316;-6.294;2022-11-20T04:57:20;7.20;99.90
41720;DHT22;27405;53.316;-6.294;2022-11-20T04:59:45;7.20;99.90
41720;DHT22;27405;53.316;-6.294;2022-11-20T05:02:11;7.20;99.90
41720;DHT22;27405;53.316;-6.294;2022-11-20T05:04:37;7.10;99.90
41720;DHT22;27405;53.316;-6.294;2022-11-20T05:07:03;7.10;99.90
41720;DHT22;27405;53.316;-6.294;2022-11-20T05:09:29;7.10;99.90
41720;DHT22;27405;53.316;-6.294;2022-11-20T05:11:55;7.10;99.90
41720;DHT22;27405;53.316;-6.294;2022-11-20T05:14:21;7.10;99.90
41720;DHT22;27405;53.316;-6.294;2022-11-20T05:16:46;7.10;99.90
41720;DHT22;27405;53.316;-6.294;2022-11-20T05:19:12;7.10;99.90
41720;DHT22;27405;53.316;-6.294;2022-11-20T05:21:38;7.10;99.90
41720;DHT22;27405;53.316;-6.294;2022-11-20T05:24:04;7.10;99.90
41720;DHT22;27405;53.316;-6.294;2022-11-20T05:26:30;7.10;99.90
41720;DHT22;27405;53.316;-6.294;2022-11-20T05:28:55;7.10;99.90
41720;DHT22;27405;53.316;-6.294;2022-11-20T05:31:23;7.10;99.90
41720;DHT22;27405;53.316;-6.294;2022-11-20T05:33:49;7.10;99.90
41720;DHT22;27405;53.316;-6.294;2022-11-20T05:36:15;7.10;99.90
41720;DHT22;27405;53.316;-6.294;2022-11-20T05:38:42;7.00;99.90
41720;DHT22;27405;53.316;-6.294;2022-11-20T05:43:40;7.00;99.90
41720;DHT22;27405;53.316;-6.294;2022-11-20T05:46:07;7.00;99.90
41720;DHT22;27405;53.316;-6.294;2022-11-20T05:48:34;7.00;99.90
41720;DHT22;27405;53.316;-6.294;2022-11-20T05:51:01;7.00;99.90
41720;DHT22;27405;53.316;-6.294;2022-11-20T05:53:27;7.00;99.90
41720;DHT22;27405;53.316;-6.294;2022-11-20T05:56:05;6.90;99.90
41720;DHT22;27405;53.316;-6.294;2022-11-20T05:58:32;6.90;99.90
41720;DHT22;27405;53.316;-6.294;2022-11-20T06:01:24;6.90;99.90
41720;DHT22;27405;53.316;-6.294;2022-11-20T06:03:51;6.90;99.90
41720;DHT22;27405;53.316;-6.294;2022-11-20T06:06:19;6.90;99.90
41720;DHT22;27405;53.316;-6.294;2022-11-20T06:08:45;6.90;99.90
41720;DHT22;27405;53.316;-6.294;2022-11-20T06:11:12;6.90;99.90
41720;DHT22;27405;53.316;-6.294;2022-11-20T06:13:39;6.90;99.90
41720;DHT22;27405;53.316;-6.294;2022-11-20T06:16:04;6.90;99.90
41720;DHT22;27405;53.316;-6.294;2022-11-20T06:18:30;6.90;99.90
41720;DHT22;27405;53.316;-6.294;2022-11-20T06:21:01;6.90;99.90
41720;DHT22;27405;53.316;-6.294;2022-11-20T06:23:31;6.90;99.90
41720;DHT22;27405;53.316;-6.294;2022-11-20T06:26:02;6.90;99.90
41720;DHT22;27405;53.316;-6.294;2022-11-20T06:28:28;6.80;99.90
41720;DHT22;27405;53.316;-6.294;2022-11-20T06:30:53;6.80;99.90
41720;DHT22;27405;53.316;-6.294;2022-11-20T06:33:19;6.80;99.90
41720;DHT22;27405;53.316;-6.294;2022-11-20T06:35:44;6.80;99.90
41720;DHT22;27405;53.316;-6.294;2022-11-20T06:38:10;6.80;99.90
41720;DHT22;27405;53.316;-6.294;2022-11-20T06:40:36;6.80;99.90
41720;DHT22;27405;53.316;-6.294;2022-11-20T06:43:04;6.80;99.90
41720;DHT22;27405;53.316;-6.294;2022-11-20T06:45:30;6.80;99.90
41720;DHT22;27405;53.316;-6.294;2022-11-20T06:47:57;6.80;99.90
41720;DHT22;27405;53.316;-6.294;2022-11-20T06:50:23;6.90;99.90
41720;DHT22;27405;53.316;-6.294;2022-11-20T06:52:49;6.90;99.90
41720;DHT22;27405;53.316;-6.294;2022-11-20T06:55:15;6.90;99.90
41720;DHT22;27405;53.316;-6.294;2022-11-20T06:57:40;6.90;99.90
41720;DHT22;27405;53.316;-6.294;2022-11-20T07:00:07;6.90;99.90
41720;DHT22;27405;53.316;-6.294;2022-11-20T07:02:32;6.90;99.90
41720;DHT22;27405;53.316;-6.294;2022-11-20T07:04:58;6.90;99.90
41720;DHT22;27405;53.316;-6.294;2022-11-20T07:07:24;6.90;99.90
41720;DHT22;27405;53.316;-6.294;2022-11-20T07:09:49;6.90;99.90
41720;DHT22;27405;53.316;-6.294;2022-11-20T07:12:15;6.90;99.90
41720;DHT22;27405;53.316;-6.294;2022-11-20T07:14:41;6.90;99.90
41720;DHT22;27405;53.316;-6.294;2022-11-20T07:17:06;6.90;99.90
41720;DHT22;27405;53.316;-6.294;2022-11-20T07:19:32;6.90;99.90
41720;DHT22;27405;53.316;-6.294;2022-11-20T07:21:58;7.00;99.90
41720;DHT22;27405;53.316;-6.294;2022-11-20T07:24:23;7.00;99.90
41720;DHT22;27405;53.316;-6.294;2022-11-20T07:26:49;7.00;99.90
41720;DHT22;27405;53.316;-6.294;2022-11-20T07:29:16;7.00;99.90
41720;DHT22;27405;53.316;-6.294;2022-11-20T07:31:42;7.00;99.90
41720;DHT22;27405;53.316;-6.294;2022-11-20T07:34:08;7.00;99.90
41720;DHT22;27405;53.316;-6.294;2022-11-20T07:36:34;7.10;99.90
41720;DHT22;27405;53.316;-6.294;2022-11-20T07:38:59;7.10;99.90
41720;DHT22;27405;53.316;-6.294;2022-11-20T07:41:25;7.00;99.90
41720;DHT22;27405;53.316;-6.294;2022-11-20T07:43:50;7.10;99.90
41720;DHT22;27405;53.316;-6.294;2022-11-20T07:46:16;7.10;99.90
41720;DHT22;27405;53.316;-6.294;2022-11-20T07:48:42;7.20;99.90
41720;DHT22;27405;53.316;-6.294;2022-11-20T07:51:08;7.10;99.90
41720;DHT22;27405;53.316;-6.294;2022-11-20T07:53:34;7.20;99.90
41720;DHT22;27405;53.316;-6.294;2022-11-20T07:56:00;7.30;99.90
41720;DHT22;27405;53.316;-6.294;2022-11-20T07:58:28;7.40;99.90
41720;DHT22;27405;53.316;-6.294;2022-11-20T08:00:54;7.40;99.90
41720;DHT22;27405;53.316;-6.294;2022-11-20T08:03:20;7.40;99.90
41720;DHT22;27405;53.316;-6.294;2022-11-20T08:05:46;7.40;99.90
41720;DHT22;27405;53.316;-6.294;2022-11-20T08:08:11;7.40;99.90
41720;DHT22;27405;53.316;-6.294;2022-11-20T08:10:37;7.50;99.90
41720;DHT22;27405;53.316;-6.294;2022-11-20T08:13:03;7.50;99.90
41720;DHT22;27405;53.316;-6.294;2022-11-20T08:15:50;7.50;99.90
41720;DHT22;27405;53.316;-6.294;2022-11-20T08:18:16;7.50;99.90
41720;DHT22;27405;53.316;-6.294;2022-11-20T08:20:43;7.50;99.90
41720;DHT22;27405;53.316;-6.294;2022-11-20T08:23:09;7.50;99.90
41720;DHT22;27405;53.316;-6.294;2022-11-20T08:25:36;7.50;99.90
41720;DHT22;27405;53.316;-6.294;2022-11-20T08:28:06;7.50;99.90
41720;DHT22;27405;53.316;-6.294;2022-11-20T08:30:33;7.50;99.90
41720;DHT22;27405;53.316;-6.294;2022-11-20T08:33:04;7.50;99.90
41720;DHT22;27405;53.316;-6.294;2022-11-20T08:35:37;7.60;99.90
41720;DHT22;27405;53.316;-6.294;2022-11-20T08:38:07;7.60;99.90
41720;DHT22;27405;53.316;-6.294;2022-11-20T08:40:33;7.70;99.90
41720;DHT22;27405;53.316;-6.294;2022-11-20T08:42:58;7.80;99.90
41720;DHT22;27405;53.316;-6.294;2022-11-20T08:45:24;7.80;99.90
41720;DHT22;27405;53.316;-6.294;2022-11-20T08:47:50;7.90;99.90
41720;DHT22;27405;53.316;-6.294;2022-11-20T08:50:16;7.90;99.90
41720;DHT22;27405;53.316;-6.294;2022-11-20T08:52:42;7.90;99.90
41720;DHT22;27405;53.316;-6.294;2022-11-20T08:55:08;8.00;99.90
41720;DHT22;27405;53.316;-6.294;2022-11-20T08:57:35;8.00;99.90
41720;DHT22;27405;53.316;-6.294;2022-11-20T09:00:03;8.10;99.90
41720;DHT22;27405;53.316;-6.294;2022-11-20T09:02:29;8.10;99.90
41720;DHT22;27405;53.316;-6.294;2022-11-20T09:04:55;8.10;99.90
41720;DHT22;27405;53.316;-6.294;2022-11-20T09:07:21;8.10;99.90
41720;DHT22;27405;53.316;-6.294;2022-11-20T09:09:47;8.10;99.90
41720;DHT22;27405;53.316;-6.294;2022-11-20T09:12:13;8.10;99.90
41720;DHT22;27405;53.316;-6.294;2022-11-20T09:14:39;8.10;99.90
41720;DHT22;27405;53.316;-6.294;2022-11-20T09:17:04;8.10;99.90
41720;DHT22;27405;53.316;-6.294;2022-11-20T09:19:30;8.10;99.90
41720;DHT22;27405;53.316;-6.294;2022-11-20T09:21:55;8.10;99.90
41720;DHT22;27405;53.316;-6.294;2022-11-20T09:24:21;8.10;99.90
41720;DHT22;27405;53.316;-6.294;2022-11-20T09:26:47;8.10;99.90
41720;DHT22;27405;53.316;-6.294;2022-11-20T09:29:12;8.10;99.90
41720;DHT22;27405;53.316;-6.294;2022-11-20T09:31:38;8.10;99.90
41720;DHT22;27405;53.316;-6.294;2022-11-20T09:34:04;8.10;99.90
41720;DHT22;27405;53.316;-6.294;2022-11-20T09:36:30;8.10;99.90
41720;DHT22;27405;53.316;-6.294;2022-11-20T09:38:55;8.10;99.90
41720;DHT22;27405;53.316;-6.294;2022-11-20T09:46:55;8.30;99.90
41720;DHT22;27405;53.316;-6.294;2022-11-20T09:52:17;8.30;99.90
41720;DHT22;27405;53.316;-6.294;2022-11-20T09:54:46;8.30;99.90
41720;DHT22;27405;53.316;-6.294;2022-11-20T09:57:14;8.30;99.90
41720;DHT22;27405;53.316;-6.294;2022-11-20T09:59:44;8.30;99.90
41720;DHT22;27405;53.316;-6.294;2022-11-20T10:10:33;8.40;99.90
41720;DHT22;27405;53.316;-6.294;2022-11-20T10:13:24;8.40;99.90
41720;DHT22;27405;53.316;-6.294;2022-11-20T10:16:15;8.50;99.90
41720;DHT22;27405;53.316;-6.294;2022-11-20T10:19:07;8.50;99.90
41720;DHT22;27405;53.316;-6.294;2022-11-20T10:21:52;8.50;99.90
41720;DHT22;27405;53.316;-6.294;2022-11-20T10:30:16;8.50;99.90
41720;DHT22;27405;53.316;-6.294;2022-11-20T10:32:48;8.50;99.90
41720;DHT22;27405;53.316;-6.294;2022-11-20T10:35:25;8.50;99.90
41720;DHT22;27405;53.316;-6.294;2022-11-20T10:37:56;8.40;99.90
41720;DHT22;27405;53.316;-6.294;2022-11-20T10:43:40;8.40;99.90
41720;DHT22;27405;53.316;-6.294;2022-11-20T10:46:05;8.40;99.90
41720;DHT22;27405;53.316;-6.294;2022-11-20T10:48:34;8.30;99.90
41720;DHT22;27405;53.316;-6.294;2022-11-20T10:51:12;8.30;99.90
41720;DHT22;27405;53.316;-6.294;2022-11-20T11:01:17;8.30;99.90
41720;DHT22;27405;53.316;-6.294;2022-11-20T11:03:44;8.40;99.90
41720;DHT22;27405;53.316;-6.294;2022-11-20T11:06:28;8.40;99.90
41720;DHT22;27405;53.316;-6.294;2022-11-20T11:09:01;8.40;99.90
41720;DHT22;27405;53.316;-6.294;2022-11-20T11:11:33;8.30;99.90
41720;DHT22;27405;53.316;-6.294;2022-11-20T11:14:06;8.30;99.90
41720;DHT22;27405;53.316;-6.294;2022-11-20T11:16:32;8.30;99.90
41720;DHT22;27405;53.316;-6.294;2022-11-20T11:19:24;8.30;99.90
41720;DHT22;27405;53.316;-6.294;2022-11-20T11:21:56;8.50;99.90
41720;DHT22;27405;53.316;-6.294;2022-11-20T11:27:12;8.60;99.90
41720;DHT22;27405;53.316;-6.294;2022-11-20T11:29:38;8.60;99.90
41720;DHT22;27405;53.316;-6.294;2022-11-20T11:34:34;8.50;99.90
41720;DHT22;27405;53.316;-6.294;2022-11-20T11:37:00;8.40;99.90
41720;DHT22;27405;53.316;-6.294;2022-11-20T11:39:29;8.40;99.90
41720;DHT22;27405;53.316;-6.294;2022-11-20T11:41:57;8.30;99.90
41720;DHT22;27405;53.316;-6.294;2022-11-20T11:44:30;8.30;99.90
41720;DHT22;27405;53.316;-6.294;2022-11-20T11:47:24;8.30;99.90
41720;DHT22;27405;53.316;-6.294;2022-11-20T11:53:02;8.30;99.90
41720;DHT22;27405;53.316;-6.294;2022-11-20T12:00:57;8.50;99.90
41720;DHT22;27405;53.316;-6.294;2022-11-20T12:03:36;8.50;99.90
41720;DHT22;27405;53.316;-6.294;2022-11-20T12:06:08;8.50;99.90
41720;DHT22;27405;53.316;-6.294;2022-11-20T12:08:53;8.40;99.90
41720;DHT22;27405;53.316;-6.294;2022-11-20T12:11:43;8.40;99.90
41720;DHT22;27405;53.316;-6.294;2022-11-20T12:14:40;8.40;99.90
41720;DHT22;27405;53.316;-6.294;2022-11-20T12:17:05;8.40;99.90
41720;DHT22;27405;53.316;-6.294;2022-11-20T12:19:33;8.30;99.90
41720;DHT22;27405;53.316;-6.294;2022-11-20T12:30:18;8.40;99.90
41720;DHT22;27405;53.316;-6.294;2022-11-20T12:33:25;8.40;99.90
41720;DHT22;27405;53.316;-6.294;2022-11-20T12:36:27;8.50;99.90
41720;DHT22;27405;53.316;-6.294;2022-11-20T12:39:30;8.50;99.90
41720;DHT22;27405;53.316;-6.294;2022-11-20T12:50:41;8.70;99.90
41720;DHT22;27405;53.316;-6.294;2022-11-20T13:05:09;8.90;99.90
41720;DHT22;27405;53.316;-6.294;2022-11-20T13:07:40;8.90;99.90
41720;DHT22;27405;53.316;-6.294;2022-11-20T13:10:16;8.90;99.90
41720;DHT22;27405;53.316;-6.294;2022-11-20T13:13:56;8.90;99.90
41720;DHT22;27405;53.316;-6.294;2022-11-20T13:16:06;8.90;99.90
41720;DHT22;27405;53.316;-6.294;2022-11-20T13:18:39;8.90;99.90
41720;DHT22;27405;53.316;-6.294;2022-11-20T13:24:26;9.00;99.90
41720;DHT22;27405;53.316;-6.294;2022-11-20T13:27:22;9.00;99.90
41720;DHT22;27405;53.316;-6.294;2022-11-20T13:30:12;9.10;99.90
41720;DHT22;27405;53.316;-6.294;2022-11-20T13:32:52;9.10;99.90
41720;DHT22;27405;53.316;-6.294;2022-11-20T13:35:34;9.10;99.90
41720;DHT22;27405;53.316;-6.294;2022-11-20T13:38:09;9.10;99.90
41720;DHT22;27405;53.316;-6.294;2022-11-20T13:46:00;9.20;99.90
41720;DHT22;27405;53.316;-6.294;2022-11-20T13:48:32;9.10;99.90
41720;DHT22;27405;53.316;-6.294;2022-11-20T14:01:43;9.20;99.90
41720;DHT22;27405;53.316;-6.294;2022-11-20T14:04:15;9.20;99.90
41720;DHT22;27405;53.316;-6.294;2022-11-20T14:06:45;9.30;99.90
41720;DHT22;27405;53.316;-6.294;2022-11-20T14:09:24;9.30;99.90
41720;DHT22;27405;53.316;-6.294;2022-11-20T14:11:50;9.30;99.90
41720;DHT22;27405;53.316;-6.294;2022-11-20T14:14:18;9.30;99.90
41720;DHT22;27405;53.316;-6.294;2022-11-20T14:16:45;9.30;99.90
41720;DHT22;27405;53.316;-6.294;2022-11-20T14:21:52;9.30;99.90
41720;DHT22;27405;53.316;-6.294;2022-11-20T14:24:20;9.20;99.90
41720;DHT22;27405;53.316;-6.294;2022-11-20T14:26:47;9.20;99.90
41720;DHT22;27405;53.316;-6.294;2022-11-20T14:29:29;9.10;99.90
41720;DHT22;27405;53.316;-6.294;2022-11-20T14:31:56;9.10;99.90
41720;DHT22;27405;53.316;-6.294;2022-11-20T14:34:24;9.10;99.90
41720;DHT22;27405;53.316;-6.294;2022-11-20T14:36:57;9.00;99.90
41720;DHT22;27405;53.316;-6.294;2022-11-20T14:39:32;9.10;99.90
41720;DHT22;27405;53.316;-6.294;2022-11-20T14:41:58;9.00;99.90
41720;DHT22;27405;53.316;-6.294;2022-11-20T14:44:31;9.10;99.90
41720;DHT22;27405;53.316;-6.294;2022-11-20T14:46:59;9.00;99.90
41720;DHT22;27405;53.316;-6.294;2022-11-20T14:49:25;9.00;99.90
41720;DHT22;27405;53.316;-6.294;2022-11-20T14:54:49;9.00;99.90
41720;DHT22;27405;53.316;-6.294;2022-11-20T14:59:47;8.90;99.90
41720;DHT22;27405;53.316;-6.294;2022-11-20T15:02:13;8.90;99.90
41720;DHT22;27405;53.316;-6.294;2022-11-20T15:04:57;8.90;99.90
41720;DHT22;27405;53.316;-6.294;2022-11-20T15:07:39;9.00;99.90
41720;DHT22;27405;53.316;-6.294;2022-11-20T15:10:25;8.90;99.90
41720;DHT22;27405;53.316;-6.294;2022-11-20T15:12:53;8.90;99.90
41720;DHT22;27405;53.316;-6.294;2022-11-20T15:15:25;8.90;99.90
41720;DHT22;27405;53.316;-6.294;2022-11-20T15:17:52;8.90;99.90
41720;DHT22;27405;53.316;-6.294;2022-11-20T15:20:18;8.80;99.90
41720;DHT22;27405;53.316;-6.294;2022-11-20T15:22:44;8.80;99.90
41720;DHT22;27405;53.316;-6.294;2022-11-20T15:25:17;8.80;99.90
41720;DHT22;27405;53.316;-6.294;2022-11-20T15:27:44;8.80;99.90
41720;DHT22;27405;53.316;-6.294;2022-11-20T15:30:19;8.80;99.90
41720;DHT22;27405;53.316;-6.294;2022-11-20T15:32:45;8.80;99.90
41720;DHT22;27405;53.316;-6.294;2022-11-20T15:35:12;8.80;99.90
41720;DHT22;27405;53.316;-6.294;2022-11-20T15:37:38;8.80;99.90
41720;DHT22;27405;53.316;-6.294;2022-11-20T15:40:05;8.70;99.90
41720;DHT22;27405;53.316;-6.294;2022-11-20T15:42:31;8.60;99.90
41720;DHT22;27405;53.316;-6.294;2022-11-20T15:44:57;8.60;99.90
41720;DHT22;27405;53.316;-6.294;2022-11-20T15:47:33;8.40;99.90
41720;DHT22;27405;53.316;-6.294;2022-11-20T15:49:59;8.40;99.90
41720;DHT22;27405;53.316;-6.294;2022-11-20T15:52:25;8.40;99.90
41720;DHT22;27405;53.316;-6.294;2022-11-20T15:54:51;8.30;99.90
41720;DHT22;27405;53.316;-6.294;2022-11-20T15:57:17;8.30;99.90
41720;DHT22;27405;53.316;-6.294;2022-11-20T15:59:42;8.20;99.90
41720;DHT22;27405;53.316;-6.294;2022-11-20T16:02:11;8.20;99.90
41720;DHT22;27405;53.316;-6.294;2022-11-20T16:04:37;8.20;99.90
41720;DHT22;27405;53.316;-6.294;2022-11-20T16:07:03;8.10;99.90
41720;DHT22;27405;53.316;-6.294;2022-11-20T16:09:29;8.10;99.90
41720;DHT22;27405;53.316;-6.294;2022-11-20T16:11:55;8.00;99.90
41720;DHT22;27405;53.316;-6.294;2022-11-20T16:14:20;8.00;99.90
41720;DHT22;27405;53.316;-6.294;2022-11-20T16:17:05;8.00;99.90
41720;DHT22;27405;53.316;-6.294;2022-11-20T16:19:30;7.90;99.90
41720;DHT22;27405;53.316;-6.294;2022-11-20T16:21:57;7.90;99.90
41720;DHT22;27405;53.316;-6.294;2022-11-20T16:24:24;7.80;99.90
41720;DHT22;27405;53.316;-6.294;2022-11-20T16:26:50;7.80;99.90
41720;DHT22;27405;53.316;-6.294;2022-11-20T16:29:15;7.70;99.90
41720;DHT22;27405;53.316;-6.294;2022-11-20T16:31:41;7.70;99.90
41720;DHT22;27405;53.316;-6.294;2022-11-20T16:34:07;7.70;99.90
41720;DHT22;27405;53.316;-6.294;2022-11-20T16:36:33;7.70;99.90
41720;DHT22;27405;53.316;-6.294;2022-11-20T16:39:01;7.70;99.90
41720;DHT22;27405;53.316;-6.294;2022-11-20T16:41:30;7.60;99.90
41720;DHT22;27405;53.316;-6.294;2022-11-20T16:43:58;7.60;99.90
41720;DHT22;27405;53.316;-6.294;2022-11-20T16:46:26;7.50;99.90
41720;DHT22;27405;53.316;-6.294;2022-11-20T16:48:54;7.50;99.90
41720;DHT22;27405;53.316;-6.294;2022-11-20T16:51:20;7.50;99.90
41720;DHT22;27405;53.316;-6.294;2022-11-20T16:53:46;7.40;99.90
41720;DHT22;27405;53.316;-6.294;2022-11-20T16:56:13;7.40;99.90
41720;DHT22;27405;53.316;-6.294;2022-11-20T16:58:47;7.30;99.90
41720;DHT22;27405;53.316;-6.294;2022-11-20T17:01:16;7.30;99.90
41720;DHT22;27405;53.316;-6.294;2022-11-20T17:03:43;7.30;99.90
41720;DHT22;27405;53.316;-6.294;2022-11-20T17:06:15;7.30;99.90
41720;DHT22;27405;53.316;-6.294;2022-11-20T17:08:42;7.20;99.90
41720;DHT22;27405;53.316;-6.294;2022-11-20T17:11:09;7.20;99.90
41720;DHT22;27405;53.316;-6.294;2022-11-20T17:13:36;7.20;99.90
41720;DHT22;27405;53.316;-6.294;2022-11-20T17:16:03;7.20;99.90
41720;DHT22;27405;53.316;-6.294;2022-11-20T17:18:30;7.20;99.90
41720;DHT22;27405;53.316;-6.294;2022-11-20T17:20:56;7.20;99.90
41720;DHT22;27405;53.316;-6.294;2022-11-20T17:23:22;7.20;99.90
41720;DHT22;27405;53.316;-6.294;2022-11-20T17:25:47;7.30;99.90
41720;DHT22;27405;53.316;-6.294;2022-11-20T17:28:13;7.30;99.90
41720;DHT22;27405;53.316;-6.294;2022-11-20T17:30:39;7.30;99.90
41720;DHT22;27405;53.316;-6.294;2022-11-20T17:33:05;7.20;99.90
41720;DHT22;27405;53.316;-6.294;2022-11-20T17:35:30;7.30;99.90
41720;DHT22;27405;53.316;-6.294;2022-11-20T17:37:56;7.30;99.90
41720;DHT22;27405;53.316;-6.294;2022-11-20T17:40:22;7.20;99.90
41720;DHT22;27405;53.316;-6.294;2022-11-20T17:42:47;7.30;99.90